createdAt,value
2018-11-22T00:01:29.293Z,5.93
2018-11-22T00:04:36.112Z,6.43
2018-11-22T00:07:41.556Z,6.10
2018-11-22T00:10:47.649Z,5.67
2018-11-22T00:13:53.712Z,6.28
2018-11-22T00:16:58.976Z,6.20
2018-11-22T00:20:04.871Z,6.30
2018-11-22T00:23:10.156Z,6.00
2018-11-22T00:26:15.523Z,5.90
2018-11-22T00:29:20.842Z,6.15
2018-11-22T00:32:26.117Z,6.57
2018-11-22T00:35:31.428Z,6.47
2018-11-22T00:38:36.692Z,6.13
2018-11-22T00:41:43.501Z,6.07
2018-11-22T00:44:48.764Z,6.23
2018-11-22T00:47:54.147Z,5.93
2018-11-22T00:50:59.560Z,6.00
2018-11-22T00:54:04.803Z,6.72
2018-11-22T00:57:10.240Z,6.03
2018-11-22T01:00:24.398Z,6.13
2018-11-22T01:03:30.432Z,5.93
2018-11-22T01:06:35.620Z,5.93
2018-11-22T01:09:41.912Z,6.43
2018-11-22T01:12:48.052Z,5.80
2018-11-22T01:15:54.922Z,6.23
2018-11-22T01:19:01.712Z,6.40
2018-11-22T01:22:07.953Z,6.00
2018-11-22T01:25:14.237Z,6.37
2018-11-22T01:28:19.632Z,6.27
2018-11-22T01:31:24.984Z,6.35
2018-11-22T01:34:31.768Z,5.93
2018-11-22T01:37:37.237Z,6.60
2018-11-22T01:40:42.488Z,6.07
2018-11-22T01:43:47.756Z,6.30
2018-11-22T01:46:53.812Z,6.50
2018-11-22T01:49:59.965Z,6.47
2018-11-22T01:53:06.026Z,6.07
2018-11-22T01:56:12.772Z,6.63
2018-11-22T01:59:18.112Z,6.33
2018-11-22T02:02:24.908Z,6.50
2018-11-22T02:05:30.340Z,5.87
2018-11-22T02:08:36.393Z,6.07
2018-11-22T02:11:42.512Z,6.10
2018-11-22T02:14:47.811Z,6.13
2018-11-22T02:17:53.172Z,6.13
2018-11-22T02:21:00.058Z,5.83
2018-11-22T02:24:06.346Z,6.00
2018-11-22T02:27:13.244Z,6.43
2018-11-22T02:30:24.381Z,6.47
2018-11-22T02:33:29.708Z,5.87
2018-11-22T02:36:34.935Z,6.03
2018-11-22T02:39:40.152Z,5.97
2018-11-22T02:42:46.200Z,6.10
2018-11-22T02:45:52.993Z,6.37
2018-11-22T02:48:58.389Z,6.13
2018-11-22T02:52:03.732Z,5.83
2018-11-22T02:55:09.233Z,5.97
2018-11-22T02:58:15.309Z,6.60
2018-11-22T03:01:22.210Z,6.40
2018-11-22T03:04:27.602Z,6.13
2018-11-22T03:07:33.610Z,6.10
2018-11-22T03:10:39.560Z,6.13
2018-11-22T03:13:44.837Z,6.10
2018-11-22T03:16:50.068Z,6.20
2018-11-22T03:19:56.077Z,6.03
2018-11-22T03:23:02.839Z,6.63
2018-11-22T03:26:08.245Z,6.23
2018-11-22T03:29:13.764Z,5.97
2018-11-22T03:32:19.071Z,6.33
2018-11-22T03:35:25.940Z,6.07
2018-11-22T03:38:31.168Z,6.03
2018-11-22T03:41:36.493Z,5.90
2018-11-22T03:44:42.012Z,6.10
2018-11-22T03:47:47.377Z,6.60
2018-11-22T03:50:53.400Z,5.57
2018-11-22T03:53:59.552Z,5.77
2018-11-22T03:57:04.872Z,5.70
2018-11-22T04:00:12.389Z,5.83
2018-11-22T04:03:18.549Z,5.83
2018-11-22T04:06:24.740Z,5.67
2018-11-22T04:09:30.706Z,5.93
2018-11-22T04:12:37.716Z,6.23
2018-11-22T04:15:44.619Z,6.27
2018-11-22T04:18:49.832Z,6.40
2018-11-22T04:21:55.389Z,6.10
2018-11-22T04:25:00.789Z,6.40
2018-11-22T04:28:06.284Z,5.80
2018-11-22T04:31:12.488Z,5.60
2018-11-22T04:34:17.805Z,5.80
2018-11-22T04:37:23.048Z,6.33
2018-11-22T04:40:29.793Z,6.20
2018-11-22T04:43:35.361Z,6.37
2018-11-22T04:46:40.609Z,6.23
2018-11-22T04:49:45.963Z,6.00
2018-11-22T04:52:52.000Z,6.20
2018-11-22T04:55:57.267Z,5.93
2018-11-22T04:59:02.545Z,5.83
2018-11-22T05:02:09.624Z,6.17
2018-11-22T05:05:18.030Z,6.00
2018-11-22T05:08:24.281Z,5.67
2018-11-22T05:11:30.288Z,6.00
2018-11-22T05:14:36.564Z,5.87
2018-11-22T05:17:41.964Z,6.20
2018-11-22T05:20:48.752Z,6.37
2018-11-22T05:23:55.497Z,6.20
2018-11-22T05:27:00.959Z,5.50
2018-11-22T05:30:15.251Z,5.70
2018-11-22T05:33:20.760Z,5.63
2018-11-22T05:36:26.753Z,6.10
2018-11-22T05:39:32.120Z,6.13
2018-11-22T05:42:37.404Z,5.80
2018-11-22T05:45:44.196Z,5.90
2018-11-22T05:48:49.688Z,5.60
2018-11-22T05:51:55.022Z,5.60
2018-11-22T05:55:00.432Z,5.10
2018-11-22T05:58:05.724Z,5.63
2018-11-22T06:01:12.105Z,5.00
2018-11-22T06:04:17.393Z,5.30
2018-11-22T06:07:22.635Z,5.57
2018-11-22T06:10:29.461Z,4.93
2018-11-22T06:13:35.599Z,5.10
2018-11-22T06:16:40.868Z,5.60
2018-11-22T06:19:46.997Z,4.97
2018-11-22T06:22:52.687Z,5.07
2018-11-22T06:25:58.090Z,4.97
2018-11-22T06:29:03.329Z,5.60
2018-11-22T06:32:08.620Z,5.27
2018-11-22T06:35:13.960Z,5.27
2018-11-22T06:38:19.460Z,4.70
2018-11-22T06:41:24.671Z,5.07
2018-11-22T06:44:30.729Z,4.95
2018-11-22T06:47:36.195Z,5.20
2018-11-22T06:50:41.564Z,5.53
2018-11-22T06:53:46.816Z,5.23
2018-11-22T06:56:52.156Z,5.00
2018-11-22T06:59:58.476Z,5.33
2018-11-22T07:03:05.549Z,5.10
2018-11-22T07:06:10.960Z,4.87
2018-11-22T07:09:16.917Z,5.00
2018-11-22T07:12:22.864Z,4.80
2018-11-22T07:15:29.672Z,4.90
2018-11-22T07:18:35.632Z,4.90
2018-11-22T07:21:40.912Z,4.77
2018-11-22T07:24:47.748Z,5.00
2018-11-22T07:27:52.888Z,5.00
2018-11-22T07:30:58.944Z,4.83
2018-11-22T07:34:04.285Z,4.60
2018-11-22T07:37:09.744Z,4.73
2018-11-22T07:40:24.177Z,4.80
2018-11-22T07:43:29.388Z,4.85
2018-11-22T07:46:34.885Z,4.97
2018-11-22T07:49:40.948Z,5.20
2018-11-22T07:52:46.344Z,4.93
2018-11-22T07:55:51.742Z,5.37
2018-11-22T07:58:57.112Z,4.70
2018-11-22T08:02:03.260Z,4.87
2018-11-22T08:05:09.893Z,4.70
2018-11-22T08:08:15.276Z,5.25
2018-11-22T08:11:20.560Z,5.30
2018-11-22T08:14:25.771Z,5.00
2018-11-22T08:17:31.768Z,4.78
2018-11-22T08:20:37.293Z,5.57
2018-11-22T08:23:43.278Z,5.17
2018-11-22T08:26:49.367Z,4.70
2018-11-22T08:29:54.624Z,5.30
2018-11-22T08:33:00.856Z,5.17
2018-11-22T08:36:06.752Z,5.43
2018-11-22T08:39:11.540Z,5.50
2018-11-22T08:42:16.828Z,4.78
2018-11-22T08:45:23.153Z,5.30
2018-11-22T08:48:28.732Z,4.80
2018-11-22T08:51:34.096Z,4.80
2018-11-22T08:54:41.008Z,5.45
2018-11-22T08:57:47.172Z,4.63
2018-11-22T09:00:52.428Z,5.10
2018-11-22T09:03:57.696Z,5.22
2018-11-22T09:07:03.236Z,5.90
2018-11-22T09:10:11.047Z,5.13
2018-11-22T09:13:16.555Z,5.17
2018-11-22T09:16:22.068Z,5.10
2018-11-22T09:19:27.447Z,5.20
2018-11-22T09:22:32.900Z,5.77
2018-11-22T09:25:38.347Z,5.05
2018-11-22T09:28:43.795Z,6.20
2018-11-22T09:31:49.143Z,5.63
2018-11-22T09:34:54.935Z,5.15
2018-11-22T09:38:00.485Z,5.60
2018-11-22T09:41:06.101Z,5.37
2018-11-22T09:44:12.465Z,5.80
2018-11-22T09:47:17.770Z,5.22
2018-11-22T09:50:24.357Z,5.55
2018-11-22T09:53:30.162Z,5.50
2018-11-22T09:56:35.596Z,6.00
2018-11-22T09:59:41.192Z,5.60
2018-11-22T10:02:46.631Z,5.25
2018-11-22T10:05:52.753Z,5.60
2018-11-22T10:08:58.101Z,5.42
2018-11-22T10:12:03.478Z,5.13
2018-11-22T10:15:10.668Z,5.58
2018-11-22T10:18:15.955Z,5.75
2018-11-22T10:21:21.406Z,6.07
2018-11-22T10:24:26.906Z,5.30
2018-11-22T10:27:32.402Z,5.50
2018-11-22T10:30:37.818Z,5.45
2018-11-22T10:33:43.059Z,5.13
2018-11-22T10:36:48.442Z,5.50
2018-11-22T12:18:36.621Z,5.53
2018-11-22T12:21:35.858Z,5.60
2018-11-22T12:24:39.862Z,5.80
2018-11-22T12:27:44.758Z,5.90
2018-11-22T12:30:48.691Z,5.60
2018-11-22T12:33:57.935Z,5.53
2018-11-22T12:37:10.683Z,5.75
2018-11-22T12:40:14.686Z,5.67
2018-11-22T12:43:18.636Z,5.70
2018-11-22T12:46:22.614Z,5.33
2018-11-22T12:49:26.623Z,5.72
2018-11-22T12:52:30.630Z,6.03
2018-11-22T12:55:34.574Z,5.75
2018-11-22T12:58:38.502Z,5.90
2018-11-22T13:01:42.467Z,5.62
2018-11-22T13:04:46.382Z,6.43
2018-11-22T13:07:50.274Z,5.50
2018-11-22T13:10:54.219Z,6.53
2018-11-22T13:13:58.211Z,5.85
2018-11-22T13:17:02.147Z,5.97
2018-11-22T13:20:07.653Z,5.75
2018-11-22T13:23:11.581Z,6.23
2018-11-22T13:26:15.495Z,5.70
2018-11-22T13:29:19.659Z,5.87
2018-11-22T13:32:23.622Z,6.00
2018-11-22T13:35:27.563Z,5.40
2018-11-22T13:38:31.902Z,5.20
2018-11-22T13:41:35.871Z,5.47
2018-11-22T13:44:39.778Z,5.37
2018-11-22T13:47:44.662Z,5.92
2018-11-22T13:50:48.626Z,5.75
2018-11-22T13:53:52.506Z,5.78
2018-11-22T13:56:56.450Z,5.80
2018-11-22T14:00:00.422Z,5.73
2018-11-22T14:03:05.815Z,5.73
2018-11-22T14:06:09.727Z,5.75
2018-11-22T14:09:13.630Z,5.78
2018-11-22T14:12:17.563Z,6.33
2018-11-22T14:15:22.638Z,6.08
2018-11-22T14:18:26.602Z,5.77
2018-11-22T14:21:30.526Z,6.63
2018-11-22T14:24:34.634Z,5.83
2018-11-22T14:27:39.206Z,6.10
2018-11-22T14:30:43.175Z,5.70
2018-11-22T14:33:47.086Z,5.95
2018-11-22T14:36:50.990Z,6.33
2018-11-22T14:39:54.903Z,6.70
2018-11-22T14:42:58.866Z,6.10
2018-11-22T14:46:02.846Z,6.20
2018-11-22T14:49:07.010Z,6.47
2018-11-22T14:52:11.008Z,5.57
2018-11-22T14:55:14.978Z,6.60
2018-11-22T14:58:18.886Z,6.25
2018-11-22T15:01:22.808Z,6.00
2018-11-22T15:04:26.718Z,5.80
2018-11-22T15:07:30.734Z,5.83
2018-11-22T15:10:34.686Z,5.60
2018-11-22T15:13:38.650Z,6.10
2018-11-22T15:16:42.581Z,6.33
2018-11-22T15:19:46.474Z,6.37
2018-11-22T15:22:51.361Z,6.23
2018-11-22T15:25:55.322Z,5.90
2018-11-22T15:28:59.235Z,6.43
2018-11-22T15:32:03.163Z,6.07
2018-11-22T15:35:09.158Z,6.60
2018-11-22T15:38:13.134Z,6.15
2018-11-22T15:41:17.032Z,5.97
2018-11-22T15:44:20.959Z,6.20
2018-11-22T15:47:24.871Z,6.10
2018-11-22T15:50:29.325Z,6.27
2018-11-22T15:53:33.295Z,6.07
2018-11-22T15:56:37.322Z,5.97
2018-11-22T15:59:41.297Z,5.97
2018-11-22T16:02:46.002Z,5.62
2018-11-22T16:05:49.963Z,6.50
2018-11-22T16:08:53.880Z,6.30
2018-11-22T16:11:57.812Z,5.80
2018-11-22T16:15:01.763Z,6.25
2018-11-22T16:18:05.918Z,6.08
2018-11-22T16:21:09.835Z,6.10
2018-11-22T16:24:13.757Z,6.00
2018-11-22T16:27:17.697Z,6.33
2018-11-22T16:30:23.017Z,6.73
2018-11-22T16:33:27.055Z,6.27
2018-11-22T16:36:30.943Z,5.73
2018-11-22T16:39:34.887Z,6.53
2018-11-22T16:42:39.546Z,6.30
2018-11-22T16:45:43.662Z,6.25
2018-11-22T16:48:47.519Z,6.60
2018-11-22T16:51:51.442Z,6.60
2018-11-22T16:54:55.346Z,6.20
2018-11-22T16:58:00.430Z,6.53
2018-11-22T17:01:04.510Z,6.47
2018-11-22T17:04:08.407Z,7.00
2018-11-22T17:07:12.316Z,7.00
2018-11-22T17:10:17.511Z,6.93
2018-11-22T17:13:21.475Z,6.78
2018-11-22T17:16:25.406Z,7.00
2018-11-22T17:19:29.294Z,6.70
2018-11-22T17:22:33.182Z,7.03
2018-11-22T17:25:37.659Z,6.67
2018-11-22T17:28:41.642Z,7.20
2018-11-22T17:31:45.563Z,6.55
2018-11-22T17:34:49.471Z,6.97
2018-11-22T17:37:54.359Z,6.58
2018-11-22T17:40:58.334Z,6.87
2018-11-22T17:44:02.272Z,6.80
2018-11-22T17:47:06.723Z,6.47
2018-11-22T17:50:13.301Z,7.00
2018-11-22T17:53:17.387Z,6.87
2018-11-22T17:56:22.118Z,6.72
2018-11-22T17:59:27.208Z,7.00
2018-11-22T18:02:32.449Z,7.05
2018-11-22T18:05:36.509Z,6.67
2018-11-22T18:08:40.370Z,7.35
2018-11-22T18:11:44.798Z,7.10
2018-11-22T18:14:48.720Z,6.97
2018-11-22T18:17:54.417Z,6.60
2018-11-22T18:20:59.088Z,6.90
2018-11-22T18:24:03.662Z,7.05
2018-11-22T18:27:07.667Z,6.72
2018-11-22T18:30:15.650Z,6.50
2018-11-22T18:33:19.659Z,6.50
2018-11-22T18:36:23.566Z,6.42
2018-11-22T18:39:27.482Z,6.70
2018-11-22T18:42:32.398Z,7.00
2018-11-22T18:45:40.317Z,6.30
2018-11-22T18:48:44.271Z,6.25
2018-11-22T18:51:48.506Z,6.60
2018-11-22T18:54:53.269Z,6.17
2018-11-22T18:57:57.658Z,7.22
2018-11-22T19:01:03.355Z,7.17
2018-11-22T19:04:08.100Z,7.28
2018-11-22T19:07:12.306Z,7.00
2018-11-22T19:10:17.811Z,6.58
2018-11-22T19:13:21.671Z,6.47
2018-11-22T19:16:25.615Z,6.92
2018-11-22T19:19:29.497Z,6.72
2018-11-22T19:22:33.439Z,6.80
2018-11-22T19:25:37.954Z,6.22
2018-11-22T19:28:42.155Z,6.67
2018-11-22T19:31:46.071Z,6.58
2018-11-22T19:34:50.402Z,6.58
2018-11-22T19:37:54.441Z,6.70
2018-11-22T19:40:58.718Z,7.20
2018-11-22T19:44:03.175Z,6.40
2018-11-22T19:47:07.470Z,7.00
2018-11-22T19:50:13.353Z,6.92
2018-11-22T19:53:17.595Z,6.70
2018-11-22T19:56:21.458Z,7.00
2018-11-22T19:59:26.189Z,6.42
2018-11-22T20:02:31.738Z,7.00
2018-11-22T20:05:37.582Z,6.90
2018-11-22T20:08:43.262Z,6.60
2018-11-22T20:11:48.118Z,7.25
2018-11-22T20:14:58.447Z,7.17
2018-11-22T20:18:05.091Z,7.03
2018-11-22T20:21:10.254Z,6.67
2018-11-22T20:24:14.778Z,6.80
2018-11-22T20:27:18.638Z,7.35
2018-11-22T20:30:25.942Z,7.22
2018-11-22T20:33:30.886Z,7.60
2018-11-22T20:36:35.298Z,7.45
2018-11-22T20:39:40.010Z,7.00
2018-11-22T20:42:44.270Z,7.30
2018-11-22T20:45:48.626Z,6.90
2018-11-22T20:48:52.842Z,7.65
2018-11-22T20:51:57.350Z,7.72
2018-11-22T20:55:03.142Z,6.97
2018-11-22T20:58:07.704Z,7.97
2018-11-22T21:01:12.371Z,7.50
2018-11-22T21:04:16.710Z,7.25
2018-11-22T21:07:21.135Z,7.87
2018-11-22T21:10:26.878Z,7.87
2018-11-22T21:13:31.620Z,7.85
2018-11-22T21:16:36.586Z,7.67
2018-11-22T21:19:40.406Z,7.80
2018-11-22T21:22:45.382Z,8.08
2018-11-22T21:25:49.320Z,8.80
2018-11-22T21:28:54.027Z,8.18
2018-11-22T21:31:58.427Z,8.38
2018-11-22T21:35:02.382Z,8.35
2018-11-22T21:38:08.423Z,8.73
2018-11-22T21:41:13.082Z,8.80
2018-11-22T21:44:18.027Z,8.40
2018-11-22T21:47:22.323Z,8.35
2018-11-22T21:50:27.969Z,9.30
2018-11-22T21:53:33.091Z,8.73
2018-11-22T21:56:37.684Z,9.35
2018-11-22T21:59:41.630Z,9.20
2018-11-22T22:02:52.404Z,8.78
2018-11-22T22:05:52.074Z,8.33
2018-11-22T22:08:56.262Z,9.20
2018-11-22T22:12:00.824Z,9.10
2018-11-22T22:15:05.303Z,9.33
2018-11-22T22:18:09.820Z,9.17
2018-11-22T22:21:14.155Z,8.83
2018-11-22T22:24:19.285Z,9.33
2018-11-22T22:27:23.713Z,9.40
2018-11-22T22:30:30.906Z,9.57
2018-11-22T22:33:35.325Z,9.27
2018-11-22T22:36:39.202Z,9.85
2018-11-22T22:39:44.717Z,9.48
2018-11-22T22:42:50.038Z,9.60
2018-11-22T22:45:55.139Z,9.90
2018-11-22T22:48:59.482Z,10.70
2018-11-22T22:52:04.047Z,10.53
2018-11-22T22:55:08.974Z,11.05
2018-11-22T22:58:13.122Z,9.87
2018-11-22T23:01:18.718Z,10.30
2018-11-22T23:04:23.322Z,10.37
2018-11-22T23:07:27.846Z,10.17
2018-11-22T23:10:33.086Z,9.70
2018-11-22T23:13:38.110Z,11.33
2018-11-22T23:16:41.938Z,10.53
2018-11-22T23:19:47.263Z,10.60
2018-11-22T23:22:52.469Z,10.88
2018-11-22T23:25:57.513Z,11.87
2018-11-22T23:29:01.886Z,10.50
2018-11-22T23:32:06.411Z,11.20
2018-11-22T23:35:10.375Z,11.37
2018-11-22T23:38:14.743Z,11.03
2018-11-22T23:41:19.062Z,11.63
2018-11-22T23:44:23.590Z,12.03
2018-11-22T23:47:28.382Z,11.33
2018-11-22T23:50:33.314Z,11.73
2018-11-22T23:53:37.718Z,11.87
2018-11-22T23:56:41.604Z,11.67
2018-11-22T23:59:45.406Z,11.77
